createdAt,value
2018-12-31T00:00:55.144Z,5.10
2018-12-31T00:03:21.427Z,5.00
2018-12-31T00:05:47.901Z,5.00
2018-12-31T00:08:14.321Z,5.00
2018-12-31T00:10:40.576Z,5.00
2018-12-31T00:13:06.888Z,5.20
2018-12-31T00:15:34.227Z,5.10
2018-12-31T00:18:00.653Z,5.00
2018-12-31T00:20:26.944Z,5.10
2018-12-31T00:22:53.207Z,5.10
2018-12-31T00:25:19.705Z,5.20
2018-12-31T00:27:46.109Z,5.10
2018-12-31T00:30:12.625Z,5.20
2018-12-31T00:32:39.006Z,5.20
2018-12-31T00:35:05.374Z,5.10
2018-12-31T00:37:31.706Z,5.10
2018-12-31T00:39:58.192Z,5.10
2018-12-31T00:42:24.532Z,5.20
2018-12-31T00:44:50.840Z,5.30
2018-12-31T00:47:17.222Z,5.10
2018-12-31T00:49:43.713Z,5.20
2018-12-31T00:52:10.109Z,5.20
2018-12-31T00:54:36.363Z,5.10
2018-12-31T00:57:02.742Z,5.20
2018-12-31T00:59:29.020Z,5.20
2018-12-31T01:01:55.340Z,5.30
2018-12-31T01:04:21.600Z,5.10
2018-12-31T01:06:47.897Z,5.20
2018-12-31T01:09:14.268Z,5.20
2018-12-31T01:11:40.678Z,5.20
2018-12-31T01:14:07.058Z,5.10
2018-12-31T01:16:33.492Z,5.20
2018-12-31T01:18:59.760Z,5.20
2018-12-31T01:21:26.168Z,5.20
2018-12-31T01:23:52.501Z,5.20
2018-12-31T01:26:18.908Z,5.20
2018-12-31T01:28:45.374Z,5.20
2018-12-31T01:31:11.660Z,5.20
2018-12-31T01:33:37.925Z,5.20
2018-12-31T01:36:04.257Z,5.20
2018-12-31T01:38:30.525Z,5.20
2018-12-31T01:40:56.783Z,5.20
2018-12-31T01:43:23.066Z,5.10
2018-12-31T01:45:49.335Z,5.20
2018-12-31T01:48:15.625Z,5.20
2018-12-31T01:50:41.911Z,5.20
2018-12-31T01:53:08.215Z,5.20
2018-12-31T01:55:34.489Z,5.30
2018-12-31T01:58:01.070Z,5.30
2018-12-31T02:00:27.348Z,5.30
2018-12-31T02:02:53.733Z,5.20
2018-12-31T02:05:20.025Z,5.30
2018-12-31T02:08:06.185Z,5.30
2018-12-31T02:10:32.445Z,5.30
2018-12-31T02:12:58.753Z,5.20
2018-12-31T02:15:25.029Z,5.30
2018-12-31T02:17:51.422Z,5.20
2018-12-31T02:20:17.842Z,5.20
2018-12-31T02:22:44.196Z,5.30
2018-12-31T02:25:10.480Z,5.30
2018-12-31T02:27:36.785Z,5.20
2018-12-31T02:30:03.762Z,5.20
2018-12-31T02:32:30.099Z,5.20
2018-12-31T02:34:56.388Z,5.10
2018-12-31T02:37:22.641Z,5.00
2018-12-31T02:39:48.939Z,5.00
2018-12-31T02:42:15.234Z,5.10
2018-12-31T02:44:41.570Z,5.20
2018-12-31T02:47:07.957Z,5.20
2018-12-31T02:49:34.270Z,5.20
2018-12-31T02:52:00.569Z,5.20
2018-12-31T02:54:26.880Z,5.30
2018-12-31T02:56:53.170Z,5.30
2018-12-31T02:59:19.451Z,5.30
2018-12-31T03:01:45.844Z,5.30
2018-12-31T03:04:12.132Z,5.40
2018-12-31T03:06:38.433Z,5.30
2018-12-31T03:09:05.910Z,5.30
2018-12-31T03:11:32.209Z,5.30
2018-12-31T03:13:58.520Z,5.20
2018-12-31T03:16:24.800Z,5.30
2018-12-31T03:18:51.089Z,5.30
2018-12-31T03:21:17.415Z,5.30
2018-12-31T03:23:44.573Z,5.20
2018-12-31T03:26:10.877Z,5.20
2018-12-31T03:28:37.237Z,5.20
2018-12-31T03:31:03.537Z,5.30
2018-12-31T03:33:29.972Z,5.30
2018-12-31T03:35:56.228Z,5.20
2018-12-31T03:38:22.607Z,5.20
2018-12-31T03:40:49.031Z,5.20
2018-12-31T03:43:15.285Z,5.20
2018-12-31T03:45:41.741Z,5.20
2018-12-31T03:48:08.096Z,5.30
2018-12-31T03:50:34.412Z,5.30
2018-12-31T03:53:00.689Z,5.40
2018-12-31T03:55:27.117Z,5.30
2018-12-31T03:57:53.508Z,5.40
2018-12-31T04:00:19.882Z,5.30
2018-12-31T04:02:47.126Z,5.30
2018-12-31T04:05:13.461Z,5.30
2018-12-31T04:07:39.873Z,5.30
2018-12-31T04:10:06.254Z,5.40
2018-12-31T04:12:32.534Z,5.30
2018-12-31T04:14:58.915Z,5.30
2018-12-31T04:17:25.299Z,5.30
2018-12-31T04:19:51.577Z,5.30
2018-12-31T04:22:17.857Z,5.30
2018-12-31T04:24:44.167Z,5.10
2018-12-31T04:27:10.476Z,5.10
2018-12-31T04:29:37.057Z,5.30
2018-12-31T04:32:03.381Z,5.30
2018-12-31T04:34:29.728Z,5.20
2018-12-31T04:36:55.996Z,5.20
2018-12-31T04:39:22.284Z,5.20
2018-12-31T04:41:48.582Z,5.30
2018-12-31T04:44:14.996Z,5.30
2018-12-31T04:46:41.281Z,5.20
2018-12-31T04:49:07.662Z,5.10
2018-12-31T04:51:34.036Z,5.20
2018-12-31T04:54:00.295Z,5.10
2018-12-31T04:56:26.611Z,5.30
2018-12-31T04:58:52.917Z,5.20
2018-12-31T05:01:19.299Z,5.20
2018-12-31T05:03:45.601Z,5.20
2018-12-31T05:06:11.835Z,5.20
2018-12-31T05:08:38.197Z,5.20
2018-12-31T05:11:04.418Z,5.20
2018-12-31T05:13:30.703Z,5.10
2018-12-31T05:15:57.020Z,5.10
2018-12-31T05:18:23.376Z,5.20
2018-12-31T05:20:49.739Z,5.10
2018-12-31T05:23:16.126Z,5.10
2018-12-31T05:25:42.403Z,5.20
2018-12-31T05:28:08.689Z,5.20
2018-12-31T05:30:34.976Z,5.20
2018-12-31T05:33:01.258Z,5.20
2018-12-31T05:35:27.655Z,5.10
2018-12-31T05:37:53.939Z,5.10
2018-12-31T05:40:20.241Z,5.10
2018-12-31T05:42:46.644Z,5.10
2018-12-31T05:45:12.976Z,5.10
2018-12-31T05:47:39.361Z,5.10
2018-12-31T05:50:05.842Z,5.00
2018-12-31T05:52:32.239Z,5.00
2018-12-31T05:54:58.550Z,5.10
2018-12-31T05:57:24.931Z,5.20
2018-12-31T05:59:51.257Z,5.10
2018-12-31T06:02:17.536Z,5.10
2018-12-31T06:04:43.915Z,5.10
2018-12-31T06:07:10.233Z,5.20
2018-12-31T06:09:36.476Z,5.20
2018-12-31T06:12:02.862Z,5.00
2018-12-31T06:14:29.265Z,5.10
2018-12-31T06:16:55.656Z,5.10
2018-12-31T06:19:21.925Z,5.10
2018-12-31T06:21:48.254Z,5.00
2018-12-31T06:24:14.708Z,5.10
2018-12-31T06:26:41.084Z,5.10
2018-12-31T06:29:07.369Z,5.10
2018-12-31T06:31:33.746Z,5.10
2018-12-31T06:34:00.046Z,5.00
2018-12-31T06:36:26.319Z,5.00
2018-12-31T06:38:52.645Z,5.00
2018-12-31T06:41:18.896Z,5.00
2018-12-31T06:43:45.201Z,5.10
2018-12-31T06:46:11.693Z,5.00
2018-12-31T06:48:38.088Z,5.00
2018-12-31T06:51:04.500Z,5.10
2018-12-31T06:53:30.973Z,5.10
2018-12-31T06:55:57.305Z,5.10
2018-12-31T06:58:25.429Z,5.10
2018-12-31T07:00:51.943Z,5.20
2018-12-31T07:03:18.330Z,5.20
2018-12-31T07:05:44.621Z,5.20
2018-12-31T07:08:10.971Z,5.10
2018-12-31T07:10:37.225Z,5.10
2018-12-31T07:13:03.840Z,5.10
2018-12-31T07:15:30.103Z,5.10
2018-12-31T07:17:56.529Z,5.10
2018-12-31T07:20:22.787Z,5.10
2018-12-31T07:22:49.079Z,5.10
2018-12-31T07:25:15.499Z,5.10
2018-12-31T07:27:41.807Z,5.00
2018-12-31T07:30:08.277Z,5.20
2018-12-31T07:32:34.804Z,5.10
2018-12-31T07:35:01.060Z,5.20
2018-12-31T07:37:27.381Z,5.10
2018-12-31T07:39:53.676Z,5.10
2018-12-31T07:42:20.067Z,5.10
2018-12-31T07:44:46.550Z,5.10
2018-12-31T07:47:13.101Z,5.10
2018-12-31T07:49:39.360Z,5.10
2018-12-31T07:52:05.685Z,5.10
2018-12-31T07:54:31.922Z,5.00
2018-12-31T07:56:58.190Z,5.00
2018-12-31T07:59:24.592Z,4.90
2018-12-31T08:01:50.958Z,5.10
2018-12-31T08:04:17.269Z,5.10
2018-12-31T08:06:43.689Z,5.00
2018-12-31T08:09:10.075Z,5.10
2018-12-31T08:11:36.428Z,5.10
2018-12-31T08:14:02.812Z,5.10
2018-12-31T08:16:29.468Z,5.10
2018-12-31T08:18:55.760Z,5.20
2018-12-31T08:21:22.636Z,5.10
2018-12-31T08:23:49.433Z,5.10
2018-12-31T08:26:16.151Z,5.10
2018-12-31T08:28:42.957Z,5.20
2018-12-31T08:31:09.796Z,5.20
2018-12-31T08:33:36.311Z,5.30
2018-12-31T08:36:02.668Z,5.40
2018-12-31T08:38:29.069Z,5.30
2018-12-31T08:40:55.356Z,5.20
2018-12-31T08:43:21.666Z,5.30
2018-12-31T08:45:48.082Z,5.30
2018-12-31T08:48:14.362Z,5.30
2018-12-31T08:50:40.624Z,5.30
2018-12-31T08:53:07.011Z,5.30
2018-12-31T08:55:33.296Z,5.50
2018-12-31T08:57:59.592Z,5.40
2018-12-31T09:00:26.107Z,5.40
2018-12-31T09:02:52.429Z,5.40
2018-12-31T09:05:18.728Z,5.50
2018-12-31T09:07:44.998Z,5.50
2018-12-31T09:10:11.305Z,5.50
2018-12-31T09:12:37.667Z,5.40
2018-12-31T09:15:04.410Z,5.60
2018-12-31T09:17:30.759Z,5.60
2018-12-31T09:19:57.032Z,5.60
2018-12-31T09:22:23.326Z,5.60
2018-12-31T09:24:49.638Z,5.50
2018-12-31T09:27:16.196Z,5.60
2018-12-31T09:29:42.588Z,5.40
2018-12-31T09:32:08.998Z,5.50
2018-12-31T09:34:35.379Z,5.50
2018-12-31T09:37:01.682Z,5.50
2018-12-31T09:39:27.932Z,5.60
2018-12-31T09:41:55.487Z,5.60
2018-12-31T09:44:21.912Z,5.50
2018-12-31T09:46:48.285Z,5.50
2018-12-31T09:49:14.540Z,5.50
2018-12-31T09:51:40.874Z,5.50
2018-12-31T09:54:07.242Z,5.50
2018-12-31T09:56:33.537Z,5.50
2018-12-31T09:59:00.019Z,5.50
2018-12-31T10:01:27.367Z,5.50
2018-12-31T10:03:53.796Z,5.60
2018-12-31T10:06:20.066Z,5.60
2018-12-31T10:08:49.298Z,5.60
2018-12-31T10:11:14.515Z,5.60
2018-12-31T10:13:40.888Z,5.60
2018-12-31T10:16:07.164Z,5.60
2018-12-31T10:18:33.488Z,5.60
2018-12-31T10:20:59.742Z,5.70
2018-12-31T10:23:26.099Z,5.60
2018-12-31T10:25:52.616Z,5.70
2018-12-31T10:28:18.984Z,5.70
2018-12-31T10:30:45.347Z,5.70
2018-12-31T10:33:11.705Z,5.70
2018-12-31T10:35:38.201Z,5.70
2018-12-31T10:38:04.676Z,5.70
2018-12-31T10:40:30.938Z,5.60
2018-12-31T10:42:57.508Z,5.60
2018-12-31T10:45:23.836Z,5.70
2018-12-31T10:47:50.121Z,5.70
2018-12-31T10:50:16.503Z,5.60
2018-12-31T10:52:42.761Z,5.60
2018-12-31T10:55:09.050Z,5.60
2018-12-31T10:57:35.336Z,5.60
2018-12-31T11:00:01.770Z,5.70
2018-12-31T11:02:28.012Z,5.70
2018-12-31T11:04:54.287Z,5.70
2018-12-31T11:07:20.597Z,5.70
2018-12-31T11:09:46.952Z,5.80
2018-12-31T11:12:13.249Z,5.80
2018-12-31T11:14:39.534Z,5.80
2018-12-31T11:17:05.819Z,5.90
2018-12-31T11:19:33.494Z,5.80
2018-12-31T11:21:59.992Z,5.70
2018-12-31T11:24:27.228Z,5.80
2018-12-31T11:26:53.530Z,5.80
2018-12-31T11:29:19.764Z,5.90
2018-12-31T11:31:46.184Z,5.90
2018-12-31T11:34:12.476Z,5.90
2018-12-31T11:36:38.882Z,5.80
2018-12-31T11:39:05.866Z,5.90
2018-12-31T11:41:32.285Z,5.90
2018-12-31T11:43:58.743Z,5.90
2018-12-31T11:46:25.015Z,5.90
2018-12-31T11:48:51.300Z,5.80
2018-12-31T11:51:17.571Z,5.90
2018-12-31T11:53:43.902Z,5.90
2018-12-31T11:56:10.481Z,5.90
2018-12-31T11:58:36.760Z,6.00
2018-12-31T12:01:03.293Z,5.90
2018-12-31T12:03:29.607Z,6.00
2018-12-31T12:05:56.084Z,6.00
2018-12-31T12:08:22.509Z,6.00
2018-12-31T12:10:48.827Z,5.90
2018-12-31T12:13:15.205Z,5.90
2018-12-31T12:15:41.809Z,5.90
2018-12-31T12:18:08.144Z,6.00
2018-12-31T12:20:34.384Z,6.00
2018-12-31T12:23:00.790Z,6.00
2018-12-31T12:25:27.033Z,6.10
2018-12-31T12:27:59.711Z,6.00
2018-12-31T12:30:25.969Z,6.00
2018-12-31T12:32:52.265Z,6.00
2018-12-31T12:35:18.577Z,6.10
2018-12-31T12:37:48.401Z,6.10
2018-12-31T12:40:12.985Z,6.10
2018-12-31T12:42:39.499Z,6.10
2018-12-31T12:45:05.896Z,6.00
2018-12-31T12:47:32.268Z,6.00
2018-12-31T12:49:58.536Z,6.00
2018-12-31T12:52:24.832Z,6.00
2018-12-31T12:54:51.121Z,6.00
2018-12-31T12:57:18.515Z,5.90
2018-12-31T12:59:44.901Z,6.00
2018-12-31T13:02:11.201Z,5.90
2018-12-31T13:04:37.592Z,6.00
2018-12-31T13:07:03.895Z,6.00
2018-12-31T13:09:30.358Z,5.90
2018-12-31T13:11:56.852Z,6.00
2018-12-31T13:14:23.463Z,5.90
2018-12-31T13:16:49.733Z,6.00
2018-12-31T13:19:22.948Z,6.00
2018-12-31T13:21:49.304Z,6.00
2018-12-31T13:24:15.555Z,6.10
2018-12-31T13:26:43.751Z,6.10
2018-12-31T13:29:10.028Z,6.00
2018-12-31T13:31:36.349Z,6.00
2018-12-31T13:34:03.803Z,6.10
2018-12-31T13:36:30.080Z,6.10
2018-12-31T13:38:56.569Z,6.20
2018-12-31T13:41:22.869Z,6.20
2018-12-31T13:43:49.304Z,6.10
2018-12-31T13:46:16.596Z,6.00
2018-12-31T13:48:43.395Z,6.00
2018-12-31T13:51:09.644Z,6.10
2018-12-31T13:53:36.223Z,6.00
2018-12-31T13:56:02.702Z,6.10
2018-12-31T13:58:29.259Z,6.10
2018-12-31T14:00:55.575Z,6.00
2018-12-31T14:03:21.837Z,6.10
2018-12-31T14:05:49.209Z,6.10
2018-12-31T14:08:15.624Z,6.00
2018-12-31T14:10:42.864Z,6.10
2018-12-31T14:13:09.236Z,6.10
2018-12-31T14:15:35.618Z,6.00
2018-12-31T14:18:01.936Z,6.10
2018-12-31T14:20:28.196Z,6.10
2018-12-31T14:22:54.509Z,6.10
2018-12-31T14:25:20.780Z,6.00
2018-12-31T14:27:47.139Z,6.00
2018-12-31T14:30:13.583Z,5.90
2018-12-31T14:32:39.878Z,6.00
2018-12-31T14:35:06.368Z,6.10
2018-12-31T14:37:32.737Z,6.10
2018-12-31T14:39:59.020Z,6.10
2018-12-31T14:42:25.444Z,6.10
2018-12-31T14:44:51.730Z,6.20
2018-12-31T14:47:18.445Z,6.10
2018-12-31T14:49:45.036Z,6.10
2018-12-31T14:52:11.357Z,6.10
2018-12-31T14:54:37.831Z,6.10
2018-12-31T14:57:04.133Z,6.10
2018-12-31T14:59:30.416Z,6.10
2018-12-31T15:01:56.901Z,6.10
2018-12-31T15:04:23.192Z,6.10
2018-12-31T15:06:49.484Z,6.10
2018-12-31T15:09:15.929Z,6.10
2018-12-31T15:11:42.614Z,6.00
2018-12-31T15:14:09.326Z,6.00
2018-12-31T15:16:35.730Z,5.90
2018-12-31T15:19:02.302Z,6.00
2018-12-31T15:21:29.269Z,5.90
2018-12-31T15:23:55.645Z,6.00
2018-12-31T15:26:22.237Z,6.00
2018-12-31T15:28:48.573Z,6.00
2018-12-31T15:31:14.896Z,6.00
2018-12-31T15:33:43.205Z,6.10
2018-12-31T15:36:09.484Z,6.10
2018-12-31T15:38:35.902Z,6.10
2018-12-31T15:41:02.593Z,6.00
2018-12-31T15:43:29.055Z,6.00
2018-12-31T15:45:55.521Z,6.00
2018-12-31T15:48:21.829Z,6.00
2018-12-31T15:50:54.113Z,6.10
2018-12-31T15:53:20.458Z,6.20
2018-12-31T15:55:47.196Z,6.10
2018-12-31T15:58:13.487Z,6.10
2018-12-31T16:00:39.945Z,6.10
2018-12-31T16:03:06.524Z,6.10
2018-12-31T16:05:32.924Z,6.10
2018-12-31T16:07:59.207Z,6.20
2018-12-31T16:10:25.828Z,6.10
2018-12-31T16:12:52.327Z,6.00
2018-12-31T16:15:18.692Z,6.00
2018-12-31T16:17:45.242Z,6.00
2018-12-31T16:20:11.494Z,5.90
2018-12-31T16:22:37.823Z,5.80
2018-12-31T16:25:16.627Z,5.80
2018-12-31T16:27:42.932Z,5.90
2018-12-31T16:30:09.385Z,5.90
2018-12-31T16:32:35.727Z,5.80
2018-12-31T16:35:02.322Z,5.80
2018-12-31T16:37:28.600Z,5.80
2018-12-31T16:39:55.999Z,5.80
2018-12-31T16:42:22.446Z,5.80
2018-12-31T16:44:48.751Z,5.70
2018-12-31T16:47:15.021Z,5.70
2018-12-31T16:49:41.444Z,5.70
2018-12-31T16:52:07.737Z,5.80
2018-12-31T16:54:34.039Z,5.80
2018-12-31T16:57:00.461Z,5.70
2018-12-31T16:59:26.827Z,5.80
2018-12-31T17:01:53.357Z,5.80
2018-12-31T17:04:19.865Z,5.80
2018-12-31T17:06:46.324Z,5.90
2018-12-31T17:09:13.080Z,5.80
2018-12-31T17:11:39.666Z,5.80
2018-12-31T17:14:05.951Z,5.80
2018-12-31T17:16:32.316Z,5.80
2018-12-31T17:18:58.648Z,5.80
2018-12-31T17:21:25.042Z,5.80
2018-12-31T17:23:51.471Z,5.80
2018-12-31T17:26:17.839Z,5.90
2018-12-31T17:28:44.120Z,5.90
2018-12-31T17:31:10.419Z,5.90
2018-12-31T17:33:36.818Z,5.90
2018-12-31T17:36:03.344Z,5.90
2018-12-31T17:38:29.621Z,5.80
2018-12-31T17:40:56.291Z,5.90
2018-12-31T17:43:22.669Z,5.90
2018-12-31T17:45:49.303Z,6.00
2018-12-31T17:48:16.685Z,5.90
2018-12-31T17:50:42.954Z,5.90
2018-12-31T17:53:09.384Z,6.00
2018-12-31T17:55:35.958Z,6.00
2018-12-31T17:58:02.520Z,6.10
2018-12-31T18:00:29.036Z,6.10
2018-12-31T18:02:55.364Z,6.00
2018-12-31T18:05:21.639Z,6.00
2018-12-31T18:07:47.920Z,5.90
2018-12-31T18:10:14.215Z,5.80
2018-12-31T18:12:40.484Z,5.70
2018-12-31T18:15:06.907Z,5.80
2018-12-31T18:17:33.565Z,5.80
2018-12-31T18:19:59.920Z,5.80
2018-12-31T18:22:26.377Z,5.70
2018-12-31T18:24:52.663Z,5.80
2018-12-31T18:27:18.964Z,5.70
2018-12-31T18:29:48.265Z,5.70
2018-12-31T18:32:14.548Z,5.70
2018-12-31T18:34:40.833Z,5.80
2018-12-31T18:37:07.230Z,5.80
2018-12-31T18:39:33.523Z,5.80
2018-12-31T18:41:59.800Z,5.80
2018-12-31T18:44:26.162Z,5.90
2018-12-31T18:46:52.439Z,5.90
2018-12-31T18:49:18.703Z,5.90
2018-12-31T18:51:44.958Z,5.90
2018-12-31T18:54:11.240Z,5.80
2018-12-31T18:56:37.900Z,5.90
2018-12-31T18:59:24.028Z,5.90
2018-12-31T19:01:50.282Z,5.90
2018-12-31T19:04:16.536Z,6.00
2018-12-31T19:06:42.816Z,6.00
2018-12-31T19:09:09.121Z,5.90
2018-12-31T19:11:35.474Z,6.00
2018-12-31T19:14:01.757Z,6.00
2018-12-31T19:16:30.656Z,6.10
2018-12-31T19:18:57.114Z,6.10
2018-12-31T19:21:23.365Z,6.10
2018-12-31T19:23:49.957Z,6.10
2018-12-31T19:26:16.204Z,6.10
2018-12-31T19:28:42.574Z,6.10
2018-12-31T19:31:08.871Z,6.20
2018-12-31T19:33:35.137Z,6.20
2018-12-31T19:36:01.521Z,6.20
2018-12-31T19:38:27.804Z,6.30
2018-12-31T19:40:54.062Z,6.30
2018-12-31T19:43:20.480Z,6.30
2018-12-31T19:45:46.715Z,6.30
2018-12-31T19:48:12.968Z,6.30
2018-12-31T19:50:39.248Z,6.40
2018-12-31T19:53:05.520Z,6.40
2018-12-31T19:55:32.085Z,6.40
2018-12-31T19:57:58.377Z,6.40
2018-12-31T20:00:24.749Z,6.40
2018-12-31T20:02:51.036Z,6.40
2018-12-31T20:05:17.382Z,6.40
2018-12-31T20:07:43.657Z,6.40
2018-12-31T20:10:10.136Z,6.40
2018-12-31T20:12:36.395Z,6.40
2018-12-31T20:15:03.989Z,6.40
2018-12-31T20:17:30.244Z,6.40
2018-12-31T20:19:56.531Z,6.50
2018-12-31T20:22:22.883Z,6.50
2018-12-31T20:24:49.131Z,6.50
2018-12-31T20:27:15.883Z,6.50
2018-12-31T20:29:42.140Z,6.60
2018-12-31T20:32:08.429Z,6.60
2018-12-31T20:34:34.884Z,6.60
2018-12-31T20:37:01.275Z,6.50
2018-12-31T20:39:27.552Z,6.50
2018-12-31T20:41:54.124Z,6.60
2018-12-31T20:44:20.702Z,6.50
2018-12-31T20:46:46.945Z,6.50
2018-12-31T20:49:13.250Z,6.40
2018-12-31T20:51:39.632Z,6.40
2018-12-31T20:54:05.905Z,6.40
2018-12-31T20:56:32.184Z,6.40
2018-12-31T20:58:58.548Z,6.40
2018-12-31T21:01:25.210Z,6.50
2018-12-31T21:03:51.492Z,6.50
2018-12-31T21:06:17.778Z,6.50
2018-12-31T21:08:44.140Z,6.40
2018-12-31T21:11:10.388Z,6.40
2018-12-31T21:13:36.666Z,6.40
2018-12-31T21:16:03.037Z,6.40
2018-12-31T21:18:29.305Z,6.40
2018-12-31T21:20:55.583Z,6.40
2018-12-31T21:23:21.838Z,6.40
2018-12-31T21:25:48.103Z,6.40
2018-12-31T21:28:23.557Z,6.50
2018-12-31T21:30:50.118Z,6.50
2018-12-31T21:33:17.975Z,6.50
2018-12-31T21:35:44.473Z,6.50
2018-12-31T21:38:10.721Z,6.50
2018-12-31T21:40:37.048Z,6.50
2018-12-31T21:43:03.308Z,6.50
2018-12-31T21:45:29.566Z,6.60
2018-12-31T21:47:55.856Z,6.60
2018-12-31T21:50:22.114Z,6.60
2018-12-31T21:52:48.397Z,6.60
2018-12-31T21:55:14.708Z,6.60
2018-12-31T21:57:40.965Z,6.60
2018-12-31T22:00:08.240Z,6.60
2018-12-31T22:02:34.902Z,6.60
2018-12-31T22:05:01.293Z,6.70
2018-12-31T22:07:27.545Z,6.70
2018-12-31T22:09:53.812Z,6.70
2018-12-31T22:12:20.097Z,6.70
2018-12-31T22:14:46.347Z,6.70
2018-12-31T22:17:12.605Z,6.70
2018-12-31T22:19:38.996Z,6.70
2018-12-31T22:22:05.262Z,6.70
2018-12-31T22:24:31.516Z,6.70
2018-12-31T22:26:57.787Z,6.70
2018-12-31T22:29:24.057Z,6.70
2018-12-31T22:31:50.345Z,6.70
2018-12-31T22:34:16.711Z,6.70
2018-12-31T22:36:42.996Z,6.70
2018-12-31T22:39:09.244Z,6.70
2018-12-31T22:41:35.495Z,6.80
2018-12-31T22:44:01.776Z,6.70
2018-12-31T22:46:28.031Z,6.70
2018-12-31T22:48:54.326Z,6.70
2018-12-31T22:51:20.674Z,6.80
2018-12-31T22:53:46.920Z,6.80
2018-12-31T22:56:13.203Z,6.70
2018-12-31T22:58:39.468Z,6.70
2018-12-31T23:01:05.948Z,6.70
2018-12-31T23:03:32.200Z,6.70
2018-12-31T23:05:58.789Z,6.70
2018-12-31T23:08:25.045Z,6.70
2018-12-31T23:10:51.314Z,6.70
2018-12-31T23:13:17.612Z,6.70
2018-12-31T23:15:43.879Z,6.70
2018-12-31T23:18:11.115Z,6.70
2018-12-31T23:20:37.847Z,6.70
2018-12-31T23:23:04.089Z,6.70
2018-12-31T23:25:30.339Z,6.70
2018-12-31T23:27:56.617Z,6.70
2018-12-31T23:30:22.928Z,6.70
2018-12-31T23:32:49.179Z,6.70
2018-12-31T23:35:15.466Z,6.70
2018-12-31T23:37:42.146Z,6.70
2018-12-31T23:40:08.596Z,6.70
2018-12-31T23:42:34.876Z,6.70
2018-12-31T23:45:01.276Z,6.70
2018-12-31T23:47:27.630Z,6.70
2018-12-31T23:49:53.916Z,6.70
2018-12-31T23:52:20.568Z,6.70
2018-12-31T23:54:46.836Z,6.70
2018-12-31T23:57:13.115Z,6.80
2018-12-31T23:59:39.361Z,6.70
